createdAt,value
2023-01-21T00:04:48.046Z,0.97
2023-01-21T00:10:10.365Z,0.97
2023-01-21T00:15:32.248Z,1.00
2023-01-21T00:20:54.005Z,1.06
2023-01-21T00:26:15.897Z,1.08
2023-01-21T00:31:37.870Z,1.06
2023-01-21T00:37:00.046Z,1.02
2023-01-21T00:42:22.177Z,0.98
2023-01-21T00:47:46.228Z,0.93
2023-01-21T00:53:08.144Z,0.92
2023-01-21T00:58:30.590Z,1.05
2023-01-21T01:03:52.342Z,1.10
2023-01-21T01:09:14.132Z,1.06
2023-01-21T01:14:36.589Z,1.00
2023-01-21T01:19:58.423Z,0.86
2023-01-21T01:25:20.234Z,0.89
2023-01-21T01:30:42.298Z,1.00
2023-01-21T01:36:10.594Z,1.04
2023-01-21T01:41:35.161Z,1.01
2023-01-21T01:46:58.695Z,1.17
2023-01-21T01:52:22.228Z,1.32
2023-01-21T01:57:47.636Z,1.45
2023-01-21T02:03:28.492Z,1.52
2023-01-21T02:08:51.539Z,1.52
2023-01-21T02:14:13.572Z,1.61
2023-01-21T02:19:44.666Z,1.66
2023-01-21T02:25:44.326Z,1.74
2023-01-21T02:31:15.280Z,1.81
2023-01-21T02:36:55.162Z,1.79
2023-01-21T02:42:30.748Z,1.81
2023-01-21T02:48:09.355Z,1.85
2023-01-21T02:53:34.200Z,1.76
2023-01-21T02:59:03.752Z,1.76
2023-01-21T03:04:57.205Z,1.86
2023-01-21T03:10:29.204Z,1.88
2023-01-21T03:16:13.376Z,1.95
2023-01-21T03:21:35.652Z,1.97
2023-01-21T03:27:00.191Z,1.95
2023-01-21T03:32:22.860Z,1.99
2023-01-21T03:37:53.161Z,1.99
2023-01-21T03:43:15.252Z,1.81
2023-01-21T03:48:48.952Z,1.81
2023-01-21T03:54:10.549Z,1.80
2023-01-21T03:59:32.583Z,1.77
2023-01-21T04:04:54.304Z,1.80
2023-01-21T04:10:17.341Z,1.82
2023-01-21T04:15:39.151Z,1.77
2023-01-21T04:21:01.038Z,1.74
2023-01-21T04:26:23.047Z,1.75
2023-01-21T04:31:46.438Z,1.74
2023-01-21T04:37:07.900Z,1.68
2023-01-21T04:42:29.869Z,1.54
2023-01-21T04:47:51.948Z,1.46
2023-01-21T04:53:14.082Z,1.42
2023-01-21T04:58:36.205Z,1.41
2023-01-21T05:03:59.942Z,1.37
2023-01-21T05:09:21.673Z,1.37
2023-01-21T05:14:43.761Z,1.33
2023-01-21T05:20:06.431Z,1.32
2023-01-21T05:25:28.285Z,1.27
2023-01-21T05:30:50.100Z,1.26
2023-01-21T05:36:12.087Z,1.26
2023-01-21T05:41:34.234Z,1.27
2023-01-21T05:46:55.775Z,1.31
2023-01-21T05:52:17.509Z,1.33
2023-01-21T05:57:39.104Z,1.34
2023-01-21T06:03:02.062Z,1.24
2023-01-21T06:08:24.327Z,1.16
2023-01-21T06:13:45.837Z,1.15
2023-01-21T06:19:08.282Z,1.08
2023-01-21T06:24:30.204Z,1.07
2023-01-21T06:29:52.115Z,1.09
2023-01-21T06:35:13.838Z,1.13
2023-01-21T06:40:35.691Z,1.11
2023-01-21T06:45:57.767Z,1.07
2023-01-21T06:51:20.063Z,1.06
2023-01-21T06:56:43.769Z,1.08
2023-01-21T07:02:05.697Z,1.05
2023-01-21T07:07:27.660Z,1.06
2023-01-21T07:12:49.411Z,1.09
2023-01-21T07:18:11.187Z,1.14
2023-01-21T07:23:32.814Z,1.15
2023-01-21T07:28:54.787Z,1.11
2023-01-21T07:34:16.434Z,1.12
2023-01-21T07:39:38.233Z,1.15
2023-01-21T07:45:02.938Z,1.17
2023-01-21T07:50:24.870Z,1.24
2023-01-21T07:55:46.703Z,1.32
2023-01-21T08:01:10.155Z,1.38
2023-01-21T08:06:31.763Z,1.50
2023-01-21T08:11:53.796Z,1.58
2023-01-21T08:17:15.781Z,1.70
2023-01-21T08:22:38.422Z,1.70
2023-01-21T08:28:00.417Z,1.77
2023-01-21T08:33:22.329Z,1.89
2023-01-21T08:38:46.692Z,1.89
2023-01-21T08:44:10.146Z,1.93
2023-01-21T08:49:31.935Z,1.99
2023-01-21T08:54:54.136Z,2.08
2023-01-21T09:00:16.985Z,2.12
2023-01-21T09:05:38.807Z,2.04
2023-01-21T09:11:01.574Z,2.07
2023-01-21T09:16:23.472Z,2.15
2023-01-21T09:21:45.335Z,2.20
2023-01-21T09:27:07.928Z,2.16
2023-01-21T09:32:29.855Z,2.33
2023-01-21T09:37:51.382Z,2.48
2023-01-21T09:43:40.663Z,2.60
2023-01-21T09:49:03.032Z,2.65
2023-01-21T09:54:26.868Z,2.76
2023-01-21T10:00:10.573Z,2.84
2023-01-21T10:05:38.020Z,2.93
2023-01-21T10:11:35.284Z,3.06
2023-01-21T10:17:07.550Z,3.16
2023-01-21T10:22:29.585Z,3.10
2023-01-21T10:27:52.308Z,3.17
2023-01-21T10:33:19.674Z,3.16
2023-01-21T10:39:12.997Z,3.15
2023-01-21T10:44:49.016Z,3.11
2023-01-21T10:50:29.770Z,3.19
2023-01-21T10:56:24.505Z,3.24
2023-01-21T11:01:49.456Z,3.28
2023-01-21T11:07:14.008Z,3.34
2023-01-21T11:12:36.124Z,3.35
2023-01-21T11:17:59.158Z,3.33
2023-01-21T11:23:34.866Z,3.35
2023-01-21T11:29:13.677Z,3.37
2023-01-21T11:34:35.250Z,3.38
2023-01-21T11:39:59.831Z,3.33
2023-01-21T11:45:31.760Z,3.32
2023-01-21T11:51:07.205Z,3.26
2023-01-21T11:56:29.366Z,3.31
2023-01-21T12:01:58.211Z,3.36
2023-01-21T12:07:22.774Z,3.28
2023-01-21T12:13:05.447Z,3.27
2023-01-21T12:18:58.709Z,3.32
2023-01-21T12:24:23.332Z,3.22
2023-01-21T12:29:57.276Z,3.31
2023-01-21T12:35:34.589Z,3.33
2023-01-21T12:41:01.652Z,3.40
2023-01-21T12:46:27.829Z,3.44
2023-01-21T12:51:54.659Z,3.43
2023-01-21T12:57:29.404Z,3.48
2023-01-21T13:02:58.656Z,3.32
2023-01-21T13:08:41.261Z,3.29
2023-01-21T13:14:09.333Z,3.25
2023-01-21T13:19:31.043Z,3.14
2023-01-21T13:25:04.912Z,3.11
2023-01-21T13:30:30.147Z,3.04
2023-01-21T13:36:20.795Z,2.96
2023-01-21T13:42:08.725Z,3.06
2023-01-21T13:47:40.484Z,3.17
2023-01-21T13:53:30.502Z,3.26
2023-01-21T13:59:07.071Z,3.28
2023-01-21T14:04:46.472Z,3.08
2023-01-21T14:10:17.204Z,3.10
2023-01-21T14:16:08.691Z,3.20
2023-01-21T14:21:56.172Z,3.25
2023-01-21T14:27:24.776Z,3.32
2023-01-21T14:32:55.386Z,3.34
2023-01-21T14:38:52.237Z,3.37
2023-01-21T14:44:39.117Z,3.38
2023-01-21T14:50:01.098Z,3.39
2023-01-21T14:55:31.548Z,3.36
2023-01-21T15:00:53.999Z,3.33
2023-01-21T15:06:20.119Z,3.28
2023-01-21T15:11:44.267Z,3.20
2023-01-21T15:17:47.571Z,3.16
2023-01-21T15:23:21.409Z,3.14
2023-01-21T15:28:47.461Z,3.11
2023-01-21T15:34:15.535Z,3.10
2023-01-21T15:39:37.128Z,3.05
2023-01-21T15:45:12.006Z,2.92
2023-01-21T15:50:49.198Z,2.93
2023-01-21T15:56:23.253Z,2.97
2023-01-21T16:01:46.291Z,2.94
2023-01-21T16:07:24.376Z,2.87
2023-01-21T16:12:58.449Z,2.85
2023-01-21T16:18:26.797Z,2.84
2023-01-21T16:23:50.932Z,2.87
2023-01-21T16:29:14.070Z,2.79
2023-01-21T16:34:42.771Z,2.71
2023-01-21T16:40:23.933Z,2.77
2023-01-21T16:45:51.042Z,2.80
2023-01-21T16:51:18.502Z,2.83
2023-01-21T16:56:47.897Z,2.89
2023-01-21T17:02:17.473Z,2.92
2023-01-21T17:08:00.637Z,2.80
2023-01-21T17:13:22.457Z,2.65
2023-01-21T17:18:54.426Z,2.68
2023-01-21T17:24:18.260Z,2.69
2023-01-21T17:29:40.189Z,2.61
2023-01-21T17:35:03.416Z,2.50
2023-01-21T17:40:32.615Z,2.40
2023-01-21T17:45:56.471Z,2.33
2023-01-21T17:51:25.081Z,2.19
2023-01-21T17:56:54.519Z,2.07
2023-01-21T18:02:22.076Z,1.92
2023-01-21T18:07:44.313Z,1.81
2023-01-21T18:13:06.890Z,1.84
2023-01-21T18:18:34.994Z,1.78
2023-01-21T18:23:56.842Z,1.73
2023-01-21T18:29:19.656Z,1.71
2023-01-21T18:34:41.886Z,1.82
2023-01-21T18:40:05.894Z,2.00
2023-01-21T18:45:28.674Z,2.12
2023-01-21T18:50:50.589Z,2.23
2023-01-21T18:56:13.410Z,2.32
2023-01-21T19:01:35.481Z,2.41
2023-01-21T19:06:57.390Z,2.44
2023-01-21T19:12:21.365Z,2.54
2023-01-21T19:17:44.204Z,2.45
2023-01-21T19:23:15.769Z,2.54
2023-01-21T19:28:39.615Z,2.43
2023-01-21T19:34:01.788Z,2.50
2023-01-21T19:39:24.064Z,2.57
2023-01-21T19:44:45.725Z,2.43
2023-01-21T19:50:12.619Z,2.27
2023-01-21T19:55:39.030Z,2.09
2023-01-21T20:01:02.938Z,2.02
2023-01-21T20:06:25.854Z,2.00
2023-01-21T20:11:47.966Z,1.96
2023-01-21T20:17:11.711Z,1.99
2023-01-21T20:22:33.879Z,2.10
2023-01-21T20:27:58.367Z,2.17
2023-01-21T20:33:22.477Z,2.20
2023-01-21T20:38:44.391Z,2.08
2023-01-21T20:44:06.083Z,1.99
2023-01-21T20:49:27.643Z,2.01
2023-01-21T20:54:49.861Z,2.08
2023-01-21T21:00:23.191Z,2.30
2023-01-21T21:05:48.848Z,2.36
2023-01-21T21:11:11.461Z,2.12
2023-01-21T21:16:34.269Z,1.80
2023-01-21T21:21:57.390Z,1.80
2023-01-21T21:27:19.531Z,1.86
2023-01-21T21:32:43.249Z,1.64
2023-01-21T21:38:10.150Z,1.63
2023-01-21T21:43:36.050Z,1.82
2023-01-21T21:48:58.450Z,1.77
2023-01-21T21:54:20.244Z,1.61
2023-01-21T21:59:42.881Z,1.49
2023-01-21T22:05:05.346Z,1.52
2023-01-21T22:10:27.553Z,1.65
2023-01-21T22:15:56.824Z,1.82
2023-01-21T22:21:23.315Z,1.91
2023-01-21T22:26:45.325Z,2.03
2023-01-21T22:32:09.407Z,2.01
2023-01-21T22:37:31.183Z,1.78
2023-01-21T22:42:52.992Z,1.78
2023-01-21T22:48:15.446Z,1.94
2023-01-21T22:53:37.457Z,1.92
2023-01-21T22:58:59.813Z,1.66
2023-01-21T23:04:21.597Z,1.57
2023-01-21T23:09:43.157Z,1.45
2023-01-21T23:15:05.443Z,1.50
2023-01-21T23:20:29.022Z,1.47
2023-01-21T23:25:52.661Z,1.32
2023-01-21T23:31:16.790Z,1.26
2023-01-21T23:36:40.110Z,1.15
2023-01-21T23:42:01.959Z,1.01
2023-01-21T23:47:24.147Z,0.99
2023-01-21T23:52:45.834Z,0.99
2023-01-21T23:58:07.562Z,1.08
